Time;durP1;ratioP1;P1;durP2;ratioP2;P2;SDS_P1;SDS_P2;PMS_P1;PMS_P2;Temp;Humidity;BMP_temperature;BMP_pressure;BME280_temperature;BME280_humidity;BME280_pressure;Samples;Min_cycle;Max_cycle;Signal;HPM_P1;HPM_P2
2023/05/28 00:02:09;;;;;;;19.92;7.22;;;10.60;99.90;;;;;;5035155;28;20045;-28
2023/05/28 00:04:35;;;;;;;32.22;7.55;;;10.60;99.90;;;;;;5036084;28;20171;-27
2023/05/28 00:07:01;;;;;;;21.40;7.40;;;10.70;99.90;;;;;;5036046;28;20088;-27
2023/05/28 00:09:26;;;;;;;21.77;7.05;;;10.60;99.90;;;;;;5035968;28;20083;-27
2023/05/28 00:11:52;;;;;;;19.65;7.32;;;10.60;99.90;;;;;;5001963;28;20050;-27
2023/05/28 00:14:18;;;;;;;20.88;6.90;;;10.60;99.90;;;;;;5036134;28;20049;-27
2023/05/28 00:16:45;;;;;;;19.98;6.57;;;10.60;99.90;;;;;;5035503;28;20053;-26
2023/05/28 00:19:11;;;;;;;19.40;8.05;;;10.60;99.90;;;;;;5036396;28;20138;-27
2023/05/28 00:21:37;;;;;;;18.85;7.40;;;10.60;99.90;;;;;;5036028;28;20042;-28
2023/05/28 00:24:03;;;;;;;19.52;7.03;;;10.60;99.90;;;;;;5035703;28;20480;-27
2023/05/28 00:26:29;;;;;;;20.58;7.05;;;10.50;99.90;;;;;;5017923;28;20493;-27
2023/05/28 00:28:55;;;;;;;20.15;7.82;;;10.50;99.90;;;;;;5035187;28;20480;-27
2023/05/28 00:31:21;;;;;;;27.05;8.50;;;10.50;99.90;;;;;;5035554;28;20084;-27
2023/05/28 00:33:46;;;;;;;27.20;8.00;;;10.50;99.90;;;;;;5035525;28;20056;-27
2023/05/28 00:36:13;;;;;;;21.73;8.52;;;10.40;99.90;;;;;;5035393;28;20049;-28
2023/05/28 00:38:38;;;;;;;27.20;8.93;;;10.40;99.90;;;;;;5035409;28;20053;-27
2023/05/28 00:41:04;;;;;;;23.25;8.88;;;10.30;99.90;;;;;;5035410;28;20043;-27
2023/05/28 00:43:31;;;;;;;20.77;9.05;;;10.30;99.90;;;;;;5035345;28;20057;-27
2023/05/28 00:46:01;;;;;;;21.23;8.32;;;10.20;99.90;;;;;;5035852;28;20451;-27
2023/05/28 00:48:28;;;;;;;27.08;9.35;;;10.20;99.90;;;;;;5035201;28;20442;-27
2023/05/28 00:50:54;;;;;;;25.50;8.95;;;10.10;99.90;;;;;;5018561;28;20144;-27
2023/05/28 00:53:20;;;;;;;23.20;9.23;;;10.00;99.90;;;;;;5034185;28;20374;-27
2023/05/28 00:55:47;;;;;;;22.15;9.02;;;10.10;99.90;;;;;;5033509;28;20136;-28
2023/05/28 00:58:16;;;;;;;23.48;9.55;;;10.10;99.90;;;;;;5035028;28;20054;-27
2023/05/28 01:00:45;;;;;;;26.35;9.95;;;10.00;99.90;;;;;;5034108;28;20124;-28
2023/05/28 01:03:11;;;;;;;25.60;10.77;;;10.00;99.90;;;;;;5035458;28;20453;-27
2023/05/28 01:05:37;;;;;;;31.05;9.38;;;9.90;99.90;;;;;;5035160;28;20389;-27
2023/05/28 01:08:06;;;;;;;26.67;9.80;;;10.00;99.90;;;;;;5034850;28;20128;-27
2023/05/28 01:10:33;;;;;;;23.92;9.05;;;10.00;99.90;;;;;;5034756;28;20052;-27
2023/05/28 01:13:02;;;;;;;28.85;8.77;;;10.00;99.90;;;;;;5033589;28;20099;-27
2023/05/28 01:15:28;;;;;;;24.80;9.70;;;10.00;99.90;;;;;;5034278;28;20120;-27
2023/05/28 01:17:59;;;;;;;23.23;8.57;;;9.90;99.90;;;;;;5034143;28;20137;-27
2023/05/28 01:20:30;;;;;;;28.17;9.30;;;9.90;99.90;;;;;;5035201;28;20049;-27
2023/05/28 01:23:00;;;;;;;26.27;9.45;;;9.80;99.90;;;;;;5034832;28;20370;-27
2023/05/28 01:25:26;;;;;;;25.92;8.73;;;9.70;99.90;;;;;;5034760;28;20484;-27
2023/05/28 01:27:53;;;;;;;28.83;9.95;;;9.70;99.90;;;;;;5035005;28;20045;-27
2023/05/28 01:30:19;;;;;;;26.27;9.00;;;9.70;99.90;;;;;;5034955;28;20134;-27
2023/05/28 01:32:44;;;;;;;29.73;9.50;;;9.70;99.90;;;;;;5032969;28;20049;-27
2023/05/28 01:35:10;;;;;;;24.90;9.00;;;9.70;99.90;;;;;;5034622;28;20053;-27
2023/05/28 01:37:41;;;;;;;26.27;10.13;;;9.70;99.90;;;;;;5034254;28;20075;-26
2023/05/28 01:40:09;;;;;;;28.13;9.68;;;9.60;99.90;;;;;;5033410;28;20051;-27
2023/05/28 01:42:35;;;;;;;23.05;10.18;;;9.70;99.90;;;;;;5034231;28;20052;-27
2023/05/28 01:45:04;;;;;;;23.05;9.30;;;9.70;99.90;;;;;;5034173;28;20091;-27
2023/05/28 01:47:30;;;;;;;23.77;9.50;;;9.70;99.90;;;;;;5034146;28;20045;-27
2023/05/28 01:49:56;;;;;;;29.27;11.10;;;9.90;99.90;;;;;;5034621;28;20056;-26
2023/05/28 01:52:22;;;;;;;40.65;12.30;;;10.00;99.90;;;;;;5034067;28;20496;-27
2023/05/28 01:54:48;;;;;;;37.97;11.70;;;10.00;99.90;;;;;;5034028;28;20056;-27
2023/05/28 01:57:14;;;;;;;26.73;9.68;;;10.00;99.90;;;;;;5033961;28;20415;-27
2023/05/28 01:59:40;;;;;;;29.92;9.43;;;10.00;99.90;;;;;;5034113;28;20061;-26
2023/05/28 02:02:07;;;;;;;25.25;8.77;;;10.10;99.90;;;;;;5033915;28;20400;-27
2023/05/28 02:04:33;;;;;;;30.00;8.82;;;10.10;99.90;;;;;;5033863;28;20560;-27
2023/05/28 02:06:59;;;;;;;21.60;8.85;;;10.10;99.90;;;;;;5033147;28;20184;-27
2023/05/28 02:09:25;;;;;;;27.92;8.98;;;10.10;99.90;;;;;;5033804;28;20049;-27
2023/05/28 02:11:50;;;;;;;28.77;8.95;;;10.00;99.90;;;;;;5033790;28;20041;-27
2023/05/28 02:14:16;;;;;;;32.78;10.77;;;10.00;99.90;;;;;;5017190;28;20049;-27
2023/05/28 02:16:45;;;;;;;25.65;9.30;;;10.00;99.90;;;;;;5033329;28;20049;-25
2023/05/28 02:19:11;;;;;;;26.40;9.90;;;10.00;99.90;;;;;;5033741;28;20124;-27
2023/05/28 02:21:37;;;;;;;30.40;8.68;;;9.90;99.90;;;;;;5033490;28;20057;-27
2023/05/28 02:24:03;;;;;;;25.70;8.85;;;9.80;99.90;;;;;;5033047;28;20051;-27
2023/05/28 02:26:29;;;;;;;25.95;9.68;;;9.70;99.90;;;;;;5034113;28;20088;-27
2023/05/28 02:28:55;;;;;;;25.63;8.38;;;9.60;99.90;;;;;;5034413;28;20077;-27
2023/05/28 02:31:21;;;;;;;27.15;8.90;;;9.50;99.90;;;;;;5034096;28;20124;-27
2023/05/28 02:33:46;;;;;;;29.08;10.20;;;9.40;99.90;;;;;;5033383;28;20045;-27
2023/05/28 02:36:12;;;;;;;34.00;9.88;;;9.40;99.90;;;;;;5033416;28;20045;-27
2023/05/28 02:38:39;;;;;;;32.78;10.30;;;9.30;99.90;;;;;;5033321;28;20045;-27
2023/05/28 02:41:05;;;;;;;31.95;11.52;;;9.30;99.90;;;;;;5034033;28;20056;-27
2023/05/28 02:43:31;;;;;;;26.75;10.93;;;9.30;99.90;;;;;;5033471;28;20045;-27
2023/05/28 02:45:56;;;;;;;28.95;10.50;;;9.20;99.90;;;;;;5033468;28;20045;-27
2023/05/28 02:48:22;;;;;;;28.40;10.93;;;9.20;99.90;;;;;;5032263;28;20080;-27
2023/05/28 02:50:48;;;;;;;40.47;11.70;;;9.10;99.90;;;;;;5033019;28;20045;-27
2023/05/28 02:53:14;;;;;;;30.90;12.07;;;9.10;99.90;;;;;;5033624;28;20527;-27
2023/05/28 02:55:40;;;;;;;36.90;12.05;;;9.00;99.90;;;;;;5033294;28;20084;-26
2023/05/28 02:58:05;;;;;;;32.53;12.52;;;9.00;99.90;;;;;;5033294;28;20080;-27
2023/05/28 03:00:31;;;;;;;25.92;10.95;;;9.00;99.90;;;;;;5032087;28;20038;-27
2023/05/28 03:02:57;;;;;;;27.75;11.35;;;8.90;99.90;;;;;;5033807;28;20115;-27
2023/05/28 03:05:23;;;;;;;31.58;11.60;;;8.90;99.90;;;;;;5032916;28;20049;-27
2023/05/28 03:07:49;;;;;;;34.15;11.07;;;8.90;99.90;;;;;;5033475;28;20057;-26
2023/05/28 03:10:15;;;;;;;32.25;12.45;;;8.90;99.90;;;;;;5033231;28;20444;-27
2023/05/28 03:12:41;;;;;;;30.17;13.70;;;9.00;99.90;;;;;;5037083;28;20128;-27
2023/05/28 03:15:07;;;;;;;37.30;11.88;;;9.00;99.90;;;;;;5036958;28;20401;-27
2023/05/28 03:17:33;;;;;;;29.58;11.45;;;9.10;99.90;;;;;;5036837;28;20092;-27
2023/05/28 03:19:58;;;;;;;25.85;11.35;;;9.10;99.90;;;;;;5036896;28;20081;-27
2023/05/28 03:22:25;;;;;;;33.65;11.55;;;9.10;99.90;;;;;;5036526;28;20049;-26
2023/05/28 03:24:50;;;;;;;24.48;11.20;;;9.10;99.90;;;;;;5036797;28;20085;-27
2023/05/28 03:27:16;;;;;;;29.40;10.88;;;9.00;99.90;;;;;;5037276;28;20068;-27
2023/05/28 03:29:42;;;;;;;34.50;11.98;;;9.00;99.90;;;;;;5036704;28;20049;-27
2023/05/28 03:32:08;;;;;;;30.63;11.50;;;9.00;99.90;;;;;;5036684;28;20045;-27
2023/05/28 03:34:35;;;;;;;29.13;10.93;;;9.10;99.90;;;;;;5036624;28;20049;-27
2023/05/28 03:37:02;;;;;;;34.10;11.32;;;9.10;99.90;;;;;;5037283;28;20081;-27
2023/05/28 03:39:28;;;;;;;32.30;11.48;;;9.10;99.90;;;;;;5035883;28;20054;-26
2023/05/28 03:41:54;;;;;;;28.33;10.70;;;9.00;99.90;;;;;;5036472;28;20076;-27
2023/05/28 03:44:20;;;;;;;28.17;10.50;;;8.90;99.90;;;;;;5036486;28;20077;-26
2023/05/28 03:46:46;;;;;;;27.00;10.02;;;8.90;99.90;;;;;;5035208;28;20040;-27
2023/05/28 03:49:11;;;;;;;28.52;10.40;;;8.80;99.90;;;;;;5035418;28;20041;-27
2023/05/28 03:51:37;;;;;;;41.38;11.50;;;8.80;99.90;;;;;;5036618;28;20057;-26
2023/05/28 03:54:03;;;;;;;28.30;10.82;;;8.80;99.90;;;;;;5036120;28;20423;-26
2023/05/28 03:56:29;;;;;;;30.90;11.50;;;8.80;99.90;;;;;;5035164;28;20530;-26
2023/05/28 03:58:55;;;;;;;34.60;12.07;;;8.90;99.90;;;;;;5035211;28;20061;-27
2023/05/28 04:01:21;;;;;;;28.08;11.45;;;8.90;99.90;;;;;;5002454;28;20045;-26
2023/05/28 04:03:46;;;;;;;25.60;12.15;;;8.90;99.90;;;;;;5035438;28;20196;-27
2023/05/28 04:06:12;;;;;;;38.17;11.85;;;8.90;99.90;;;;;;5036879;28;20511;-27
2023/05/28 04:08:38;;;;;;;35.28;12.27;;;8.90;99.90;;;;;;5036825;28;20465;-27
2023/05/28 04:11:04;;;;;;;30.70;11.65;;;8.90;99.90;;;;;;5036242;28;20045;-27
2023/05/28 04:13:29;;;;;;;31.15;12.13;;;9.00;99.90;;;;;;5035598;28;20485;-27
2023/05/28 04:15:55;;;;;;;26.67;11.80;;;9.00;99.90;;;;;;5035681;28;20049;-26
2023/05/28 04:18:21;;;;;;;33.50;12.13;;;9.10;99.90;;;;;;5036008;28;20061;-26
2023/05/28 04:20:47;;;;;;;31.17;11.57;;;9.00;99.90;;;;;;5035779;28;20089;-27
2023/05/28 04:23:13;;;;;;;26.65;11.40;;;9.10;99.90;;;;;;5035898;28;20052;-27
2023/05/28 04:25:38;;;;;;;30.55;11.98;;;9.10;99.90;;;;;;5036219;28;20136;-27
2023/05/28 04:28:04;;;;;;;37.83;12.25;;;9.10;99.90;;;;;;5035479;28;20053;-27
2023/05/28 04:30:30;;;;;;;30.23;11.68;;;9.10;99.90;;;;;;5035595;28;20099;-27
2023/05/28 04:32:56;;;;;;;28.75;11.82;;;9.10;99.90;;;;;;5035552;28;20046;-26
2023/05/28 04:35:22;;;;;;;21.45;10.48;;;9.30;99.90;;;;;;5035113;28;20132;-27
2023/05/28 04:37:50;;;;;;;19.30;8.73;;;9.20;99.90;;;;;;5018096;28;20052;-27
2023/05/28 04:40:17;;;;;;;17.80;9.18;;;9.10;99.90;;;;;;5035983;28;20053;-26
2023/05/28 04:42:43;;;;;;;23.30;9.30;;;9.00;99.90;;;;;;5035409;28;20072;-26
2023/05/28 04:45:09;;;;;;;26.63;10.13;;;9.00;99.90;;;;;;5035329;28;20489;-26
2023/05/28 04:47:37;;;;;;;27.25;11.50;;;9.00;99.90;;;;;;5035281;28;20060;-27
2023/05/28 04:50:04;;;;;;;26.75;11.80;;;9.10;99.90;;;;;;5034275;28;20132;-28
2023/05/28 04:52:32;;;;;;;32.20;12.88;;;9.30;99.90;;;;;;5035138;28;20050;-27
2023/05/28 04:54:58;;;;;;;27.35;12.80;;;9.40;99.90;;;;;;5034016;28;20103;-27
2023/05/28 04:57:24;;;;;;;28.52;12.23;;;9.60;99.90;;;;;;5035589;28;20389;-26
2023/05/28 04:59:50;;;;;;;33.92;13.10;;;9.70;99.90;;;;;;5034387;28;20041;-27
2023/05/28 05:02:19;;;;;;;32.50;11.35;;;9.90;99.90;;;;;;5035798;28;20052;-26
2023/05/28 05:04:45;;;;;;;34.15;11.50;;;10.00;99.90;;;;;;5035163;28;20045;-26
2023/05/28 05:07:14;;;;;;;29.13;10.52;;;10.30;99.90;;;;;;5034957;28;20050;-27
2023/05/28 05:09:40;;;;;;;29.50;10.88;;;10.40;99.90;;;;;;5035343;28;20045;-27
2023/05/28 05:12:07;;;;;;;21.85;9.13;;;10.90;99.90;;;;;;5033658;28;20052;-27
2023/05/28 05:14:33;;;;;;;20.83;8.00;;;11.80;99.90;;;;;;5017620;28;20053;-27
2023/05/28 05:16:59;;;;;;;20.45;7.07;;;12.60;99.90;;;;;;5034162;28;20536;-27
2023/05/28 05:19:25;;;;;;;18.27;7.90;;;13.30;99.90;;;;;;5034971;28;20144;-28
2023/05/28 05:21:51;;;;;;;20.83;7.28;;;14.00;99.90;;;;;;5034644;28;20052;-27
2023/05/28 05:24:16;;;;;;;20.15;6.95;;;14.50;99.90;;;;;;5034825;28;20092;-27
2023/05/28 05:26:42;;;;;;;17.52;7.30;;;15.10;99.90;;;;;;5035057;28;20178;-28
2023/05/28 05:29:08;;;;;;;18.98;7.30;;;15.60;99.90;;;;;;5034466;28;20106;-28
2023/05/28 05:31:34;;;;;;;17.73;6.22;;;15.80;99.90;;;;;;5034443;28;20049;-27
2023/05/28 05:34:00;;;;;;;16.40;6.28;;;15.90;1.00;;;;;;5016587;28;20163;-27
2023/05/28 05:36:26;;;;;;;15.70;5.28;;;15.90;99.90;;;;;;5033963;28;20046;-27
2023/05/28 05:38:51;;;;;;;17.70;5.40;;;16.10;93.70;;;;;;5034865;28;20049;-28
2023/05/28 05:41:17;;;;;;;17.75;5.60;;;16.30;7.30;;;;;;5034248;28;20045;-28
2023/05/28 05:43:43;;;;;;;17.25;5.55;;;16.60;1.00;;;;;;5034468;28;20128;-29
2023/05/28 05:46:09;;;;;;;18.13;5.00;;;16.80;99.90;;;;;;5034444;28;20068;-27
2023/05/28 05:48:34;;;;;;;17.27;5.00;;;17.00;99.90;;;;;;5034141;28;20399;-27
2023/05/28 05:51:02;;;;;;;10.07;4.88;;;17.10;99.90;;;;;;5033835;28;20061;-27
2023/05/28 05:53:28;;;;;;;13.25;5.32;;;17.10;68.40;;;;;;5033065;28;20489;-28
2023/05/28 05:55:54;;;;;;;11.57;4.15;;;17.30;82.70;;;;;;5034489;28;20076;-27
2023/05/28 05:58:20;;;;;;;14.10;4.60;;;17.30;1.00;;;;;;5033722;28;20668;-28
2023/05/28 06:00:47;;;;;;;11.80;3.72;;;17.40;1.00;;;;;;5034024;28;20042;-28
2023/05/28 06:03:14;;;;;;;19.40;4.97;;;17.60;1.00;;;;;;5034008;28;20092;-28
2023/05/28 06:05:40;;;;;;;16.23;5.75;;;17.50;99.90;;;;;;5033580;28;20617;-28
2023/05/28 06:08:06;;;;;;;15.48;4.60;;;17.40;1.00;;;;;;5016270;28;20085;-27
2023/05/28 06:10:31;;;;;;;14.55;4.45;;;17.00;1.00;;;;;;5034106;28;20080;-28
2023/05/28 06:13:01;;;;;;;11.52;4.22;;;17.10;1.00;;;;;;5033826;28;20476;-28
2023/05/28 06:15:28;;;;;;;15.50;4.43;;;17.00;1.00;;;;;;5033389;28;20408;-28
2023/05/28 06:17:55;;;;;;;16.77;4.80;;;16.70;1.00;;;;;;5033519;28;20061;-28
2023/05/28 06:20:21;;;;;;;15.48;5.03;;;16.10;1.00;;;;;;5033675;28;20109;-28
2023/05/28 06:22:47;;;;;;;15.15;5.15;;;16.20;99.90;;;;;;5034200;28;20045;-27
2023/05/28 06:25:14;;;;;;;15.98;4.72;;;16.50;99.90;;;;;;5033643;28;20093;-27
2023/05/28 06:27:40;;;;;;;15.10;4.45;;;16.80;20.60;;;;;;5032905;28;20068;-28
2023/05/28 06:30:07;;;;;;;17.02;5.20;;;17.30;1.00;;;;;;5034163;28;20053;-28
2023/05/28 06:32:33;;;;;;;11.30;4.32;;;17.40;99.90;;;;;;5032849;28;20473;-28
2023/05/28 06:34:59;;;;;;;14.98;5.15;;;17.80;99.90;;;;;;5033193;28;20060;-28
2023/05/28 06:37:25;;;;;;;13.30;5.28;;;17.90;1.00;;;;;;5032831;28;20397;-28
2023/05/28 06:39:51;;;;;;;17.80;5.32;;;18.20;99.90;;;;;;5032229;28;20045;-27
2023/05/28 06:42:17;;;;;;;12.95;4.70;;;18.60;1.00;;;;;;5034326;28;20045;-27
2023/05/28 06:44:43;;;;;;;11.90;4.38;;;18.90;57.10;;;;;;5033692;28;20419;-28
2023/05/28 06:47:09;;;;;;;20.13;6.53;;;18.80;1.00;;;;;;5038092;28;20051;-27
2023/05/28 06:49:35;;;;;;;15.63;6.53;;;18.70;99.90;;;;;;5037138;28;20053;-27
2023/05/28 06:52:00;;;;;;;16.15;7.97;;;18.70;99.90;;;;;;5037422;28;20045;-29
2023/05/28 06:54:26;;;;;;;17.92;8.20;;;18.60;99.90;;;;;;5036227;28;20115;-27
2023/05/28 06:56:52;;;;;;;17.38;7.63;;;18.70;99.90;;;;;;5037243;28;20440;-28
2023/05/28 06:59:17;;;;;;;14.65;6.38;;;19.00;99.90;;;;;;5036159;28;20041;-27
2023/05/28 07:01:43;;;;;;;19.05;7.43;;;19.40;1.00;;;;;;5036344;28;20374;-27
2023/05/28 07:04:09;;;;;;;12.32;5.18;;;19.80;99.90;;;;;;5037761;28;20049;-28
2023/05/28 07:06:35;;;;;;;10.85;4.45;;;20.00;99.90;;;;;;5037784;28;20054;-28
2023/05/28 07:09:00;;;;;;;7.82;3.75;;;19.80;99.90;;;;;;5037195;28;20489;-28
2023/05/28 07:11:26;;;;;;;7.88;3.70;;;19.60;99.90;;;;;;5037064;28;20478;-28
2023/05/28 07:13:54;;;;;;;7.50;3.58;;;19.40;1.00;;;;;;5037073;28;20053;-27
2023/05/28 07:16:21;;;;;;;9.68;3.92;;;19.40;1.00;;;;;;5036956;28;20408;-29
2023/05/28 07:18:47;;;;;;;10.23;4.10;;;19.60;1.00;;;;;;5036768;28;20089;-27
2023/05/28 07:21:13;;;;;;;11.00;4.32;;;19.50;1.00;;;;;;5036969;28;20397;-27
2023/05/28 07:23:39;;;;;;;9.15;3.97;;;19.60;1.00;;;;;;5019697;28;20041;-27
2023/05/28 07:26:05;;;;;;;11.10;4.25;;;19.70;1.00;;;;;;5036752;28;20083;-27
2023/05/28 07:28:31;;;;;;;11.18;5.10;;;19.90;1.00;;;;;;5036668;28;20056;-27
2023/05/28 07:30:57;;;;;;;11.15;4.43;;;20.00;1.00;;;;;;5036615;28;20049;-27
2023/05/28 07:33:23;;;;;;;8.38;3.65;;;19.90;1.00;;;;;;5019140;28;20046;-27
2023/05/28 07:35:49;;;;;;;7.63;3.75;;;19.70;99.90;;;;;;5035293;28;20104;-27
2023/05/28 07:38:15;;;;;;;10.75;3.63;;;19.60;99.90;;;;;;5036566;28;20079;-27
2023/05/28 07:40:41;;;;;;;7.85;3.63;;;19.40;99.90;;;;;;5035277;28;20038;-28
2023/05/28 07:43:07;;;;;;;9.18;5.10;;;19.80;99.90;;;;;;5036435;28;20049;-27
2023/05/28 07:45:33;;;;;;;9.32;3.38;;;19.90;99.90;;;;;;5036405;28;20056;-27
2023/05/28 07:47:58;;;;;;;5.90;3.80;;;19.80;99.90;;;;;;5035059;28;20107;-27
2023/05/28 07:50:24;;;;;;;9.68;3.35;;;20.20;99.90;;;;;;5036561;28;20060;-27
2023/05/28 07:52:51;;;;;;;7.18;3.38;;;20.30;99.90;;;;;;5036746;28;20052;-28
2023/05/28 07:55:17;;;;;;;8.82;3.97;;;20.40;99.90;;;;;;5036671;28;20405;-27
2023/05/28 07:57:42;;;;;;;8.18;3.70;;;20.60;99.90;;;;;;5034145;28;20045;-28
2023/05/28 08:00:14;;;;;;;7.13;3.50;;;21.00;99.90;;;;;;5036981;28;20049;-29
2023/05/28 08:02:40;;;;;;;6.60;3.38;;;21.20;99.90;;;;;;5036725;28;20048;-27
2023/05/28 08:05:06;;;;;;;8.63;3.72;;;21.20;99.90;;;;;;5035751;28;20400;-28
2023/05/28 08:07:32;;;;;;;9.35;3.80;;;21.10;99.90;;;;;;5035970;28;20041;-28
2023/05/28 08:09:58;;;;;;;6.03;3.00;;;21.30;99.90;;;;;;5035964;28;20045;-28
2023/05/28 08:12:23;;;;;;;10.73;4.90;;;21.40;99.90;;;;;;5035975;28;20136;-28
2023/05/28 08:14:50;;;;;;;11.43;3.60;;;21.70;99.90;;;;;;5036440;28;20055;-28
2023/05/28 08:17:16;;;;;;;6.78;4.03;;;21.90;99.90;;;;;;5034520;28;20103;-29
2023/05/28 08:19:42;;;;;;;7.38;3.88;;;21.70;99.90;;;;;;5016985;28;20177;-28
2023/05/28 08:22:08;;;;;;;11.50;4.13;;;21.80;99.90;;;;;;5034640;28;20045;-27
2023/05/28 08:24:34;;;;;;;5.85;3.38;;;21.90;99.90;;;;;;5035720;28;20045;-29
2023/05/28 08:27:00;;;;;;;6.88;3.88;;;22.00;99.90;;;;;;5036271;28;20050;-28
2023/05/28 08:29:25;;;;;;;8.93;4.70;;;22.00;99.90;;;;;;5036510;28;20068;-28
2023/05/28 08:31:51;;;;;;;7.45;4.05;;;21.80;75.20;;;;;;5034376;28;20381;-28
2023/05/28 08:34:17;;;;;;;6.35;3.80;;;21.60;69.40;;;;;;5036410;28;20084;-28
2023/05/28 08:36:43;;;;;;;7.60;4.00;;;21.40;67.80;;;;;;5034860;28;20448;-28
2023/05/28 08:39:09;;;;;;;8.80;3.97;;;21.60;79.40;;;;;;5035526;28;20111;-28
2023/05/28 08:41:35;;;;;;;8.73;3.97;;;21.90;95.70;;;;;;5035443;28;20057;-28
2023/05/28 08:44:01;;;;;;;7.38;3.95;;;22.20;99.90;;;;;;5017761;28;20108;-28
2023/05/28 08:46:30;;;;;;;11.02;4.32;;;22.10;99.90;;;;;;5035349;28;20470;-28
2023/05/28 08:48:57;;;;;;;10.38;4.13;;;22.20;99.90;;;;;;5035284;28;20049;-28
2023/05/28 08:51:26;;;;;;;8.68;4.68;;;22.00;99.90;;;;;;5035235;28;20056;-28
2023/05/28 08:53:52;;;;;;;10.63;4.90;;;22.10;99.90;;;;;;5035198;28;20064;-28
2023/05/28 08:56:20;;;;;;;8.88;4.25;;;22.20;99.90;;;;;;5035053;28;20517;-28
2023/05/28 08:58:46;;;;;;;11.05;4.85;;;22.30;99.90;;;;;;5017848;28;20060;-28
2023/05/28 09:01:12;;;;;;;9.95;5.00;;;22.50;99.90;;;;;;5035100;28;20469;-28
2023/05/28 09:03:39;;;;;;;9.82;4.43;;;22.70;99.90;;;;;;5034997;28;20470;-28
2023/05/28 09:06:06;;;;;;;10.38;4.97;;;22.90;99.90;;;;;;5034981;28;20041;-28
2023/05/28 09:08:32;;;;;;;7.57;4.20;;;22.80;99.90;;;;;;5032572;28;20401;-28
2023/05/28 09:11:12;;;;;;;10.60;4.65;;;23.10;99.90;;;;;;5035314;28;20046;-29
2023/05/28 09:13:45;;;;;;;11.05;5.38;;;23.50;99.90;;;;;;5034821;28;20132;-28
2023/05/28 09:16:20;;;;;;;10.30;4.88;;;23.70;99.90;;;;;;5034529;28;20092;-28
2023/05/28 09:18:48;;;;;;;10.00;4.45;;;23.80;99.90;;;;;;5035063;28;20057;-28
2023/05/28 09:21:14;;;;;;;10.25;4.22;;;24.30;99.90;;;;;;5033438;28;20055;-29
2023/05/28 09:23:39;;;;;;;10.38;4.97;;;24.40;99.90;;;;;;5034556;28;20128;-28
2023/05/28 09:26:11;;;;;;;8.75;5.05;;;24.40;99.90;;;;;;5034604;28;20045;-28
2023/05/28 09:28:45;;;;;;;10.98;5.57;;;24.30;99.90;;;;;;5034768;28;20050;-28
2023/05/28 09:31:11;;;;;;;10.15;5.47;;;24.00;95.70;;;;;;5034528;28;20132;-28
2023/05/28 09:33:45;;;;;;;11.23;5.55;;;23.80;82.40;;;;;;5035276;28;20129;-28
2023/05/28 09:36:11;;;;;;;9.80;5.95;;;23.80;55.40;;;;;;5034890;28;20535;-28
2023/05/28 09:38:43;;;;;;;8.15;5.47;;;23.60;47.30;;;;;;5033998;28;20053;-29
2023/05/28 09:41:22;;;;;;;9.27;5.70;;;23.90;35.90;;;;;;5034356;28;20045;-28
2023/05/28 09:44:00;;;;;;;8.65;5.88;;;24.00;38.40;;;;;;5034207;28;20060;-29
2023/05/28 09:46:34;;;;;;;8.52;5.45;;;23.90;32.50;;;;;;5034186;28;20080;-28
2023/05/28 09:49:01;;;;;;;10.38;5.25;;;24.20;47.10;;;;;;5033913;28;20527;-28
2023/05/28 09:51:29;;;;;;;8.85;5.00;;;24.10;40.50;;;;;;5034081;28;20137;-28
2023/05/28 09:53:58;;;;;;;8.10;4.88;;;24.10;38.60;;;;;;5034052;28;20049;-29
2023/05/28 09:56:31;;;;;;;9.68;5.05;;;24.20;23.70;;;;;;5034468;28;20045;-28
2023/05/28 09:58:59;;;;;;;8.45;5.15;;;24.30;16.20;;;;;;5034552;28;20045;-29
2023/05/28 10:01:30;;;;;;;6.75;4.45;;;24.10;19.70;;;;;;5033930;28;20489;-29
2023/05/28 10:04:10;;;;;;;7.70;4.85;;;24.10;12.60;;;;;;5033920;28;20046;-29
2023/05/28 10:06:38;;;;;;;9.48;4.32;;;24.60;24.80;;;;;;5033815;28;20041;-29
2023/05/28 10:09:05;;;;;;;6.82;3.70;;;24.50;2.80;;;;;;5033661;28;20107;-29
2023/05/28 10:11:41;;;;;;;6.15;3.47;;;24.70;28.30;;;;;;5033858;28;20056;-29
2023/05/28 10:14:08;;;;;;;7.20;3.47;;;24.90;1.00;;;;;;5033773;28;20124;-28
2023/05/28 10:16:35;;;;;;;5.50;2.80;;;24.80;10.70;;;;;;4983265;28;20045;-29
2023/05/28 10:19:01;;;;;;;5.65;2.70;;;24.90;20.20;;;;;;5015866;28;20061;-28
2023/05/28 10:21:27;;;;;;;5.50;2.63;;;24.90;20.20;;;;;;5033443;28;20404;-29
2023/05/28 10:23:54;;;;;;;6.80;2.75;;;25.30;23.50;;;;;;5033615;28;20140;-29
2023/05/28 10:26:21;;;;;;;5.90;3.25;;;25.30;27.10;;;;;;5034384;28;20045;-29
2023/05/28 10:28:54;;;;;;;3.13;2.10;;;25.50;37.90;;;;;;5033307;28;20516;-29
2023/05/28 10:31:22;;;;;;;5.25;2.33;;;25.50;19.90;;;;;;5033634;28;20128;-28
2023/05/28 10:33:48;;;;;;;3.20;2.15;;;25.30;1.00;;;;;;5033595;28;20073;-28
2023/05/28 10:36:16;;;;;;;4.68;2.40;;;25.10;1.00;;;;;;5033292;28;20500;-29
2023/05/28 10:38:51;;;;;;;8.68;2.60;;;25.00;1.00;;;;;;5033402;28;20131;-28
2023/05/28 10:41:21;;;;;;;5.18;2.75;;;24.80;1.00;;;;;;5032013;28;20514;-28
2023/05/28 10:43:48;;;;;;;7.15;2.72;;;24.70;1.00;;;;;;5015980;28;20132;-28
2023/05/28 10:46:34;;;;;;;4.75;2.38;;;25.00;19.70;;;;;;5033424;28;20049;-31
2023/05/28 10:49:14;;;;;;;10.32;3.63;;;25.10;22.60;;;;;;5033934;28;20163;-29
2023/05/28 10:51:56;;;;;;;8.02;2.90;;;25.40;22.60;;;;;;5033418;28;20054;-29
2023/05/28 10:54:30;;;;;;;7.85;2.65;;;24.80;13.60;;;;;;5033159;28;20049;-29
2023/05/28 10:57:08;;;;;;;4.95;2.75;;;25.10;25.60;;;;;;5033270;28;20081;-30
2023/05/28 10:59:57;;;;;;;6.20;2.78;;;25.20;32.20;;;;;;5033346;28;20100;-29
2023/05/28 11:02:33;;;;;;;8.85;3.20;;;25.20;45.30;;;;;;5033959;28;20053;-30
2023/05/28 11:05:01;;;;;;;6.40;2.60;;;25.10;71.30;;;;;;5032196;28;20568;-29
2023/05/28 11:07:35;;;;;;;7.72;2.97;;;24.90;64.50;;;;;;5032771;28;20044;-29
2023/05/28 11:10:12;;;;;;;8.23;3.28;;;24.50;80.50;;;;;;5032111;28;20048;-29
2023/05/28 11:12:40;;;;;;;8.07;3.10;;;25.10;97.30;;;;;;5033820;28;20358;-30
2023/05/28 11:15:08;;;;;;;7.25;3.40;;;25.40;99.90;;;;;;5032898;28;20092;-30
2023/05/28 11:17:41;;;;;;;8.23;3.17;;;25.20;99.90;;;;;;5032657;28;20101;-30
2023/05/28 11:20:17;;;;;;;6.97;3.30;;;25.30;99.90;;;;;;5033854;28;20108;-30
2023/05/28 11:22:43;;;;;;;7.13;2.67;;;24.60;90.20;;;;;;5033991;28;20045;-30
2023/05/28 11:25:10;;;;;;;6.22;3.08;;;24.60;99.90;;;;;;5033629;28;20385;-30
2023/05/28 11:27:37;;;;;;;9.15;2.80;;;24.30;98.00;;;;;;5032463;28;20053;-29
2023/05/28 11:30:24;;;;;;;8.10;3.58;;;24.50;99.90;;;;;;5033079;28;20050;-29
2023/05/28 11:32:50;;;;;;;6.78;2.70;;;24.50;99.90;;;;;;5035572;28;20056;-29
2023/05/28 11:35:17;;;;;;;9.48;3.65;;;24.70;99.90;;;;;;5035368;28;20046;-29
2023/05/28 11:37:44;;;;;;;6.32;2.85;;;24.30;99.90;;;;;;5036344;28;20059;-30
2023/05/28 11:40:12;;;;;;;7.35;3.05;;;24.60;99.90;;;;;;5036060;28;20534;-30
2023/05/28 11:42:42;;;;;;;10.32;3.10;;;24.70;99.90;;;;;;5036063;28;20124;-30
2023/05/28 11:45:09;;;;;;;7.90;3.08;;;24.70;99.90;;;;;;5020139;28;20049;-29
2023/05/28 11:47:39;;;;;;;10.07;3.30;;;24.70;99.90;;;;;;5036383;28;20045;-29
2023/05/28 11:50:08;;;;;;;9.25;3.20;;;24.70;99.90;;;;;;5036217;28;20076;-30
2023/05/28 11:52:34;;;;;;;8.73;2.95;;;24.70;99.90;;;;;;5036033;28;20053;-29
2023/05/28 11:55:01;;;;;;;9.20;3.20;;;24.70;99.90;;;;;;5035901;28;20092;-29
2023/05/28 11:57:33;;;;;;;8.55;3.00;;;24.50;99.90;;;;;;5035148;28;20144;-29
2023/05/28 12:00:01;;;;;;;11.77;3.33;;;24.20;99.90;;;;;;5036348;28;20392;-30
2023/05/28 12:02:27;;;;;;;10.52;3.28;;;23.80;99.90;;;;;;5035912;28;20060;-30
2023/05/28 12:05:01;;;;;;;7.47;3.08;;;23.80;99.90;;;;;;5036122;28;20045;-29
2023/05/28 12:07:34;;;;;;;9.52;3.15;;;23.80;99.90;;;;;;5036041;28;20041;-30
2023/05/28 12:10:10;;;;;;;13.98;3.63;;;23.50;99.90;;;;;;5036584;28;20087;-29
2023/05/28 12:12:44;;;;;;;8.48;3.13;;;23.30;99.90;;;;;;5018324;28;20049;-29
2023/05/28 12:15:11;;;;;;;8.30;3.15;;;23.50;99.90;;;;;;5035826;28;20051;-29
2023/05/28 12:17:38;;;;;;;11.70;2.92;;;23.50;99.90;;;;;;5034823;28;20037;-29
2023/05/28 12:20:16;;;;;;;8.93;3.15;;;23.00;99.90;;;;;;5036729;28;20382;-31
2023/05/28 12:22:43;;;;;;;10.05;3.25;;;22.70;99.90;;;;;;5036171;28;20054;-30
2023/05/28 12:25:10;;;;;;;6.85;2.83;;;22.60;99.90;;;;;;5035208;28;20648;-31
2023/05/28 12:27:36;;;;;;;8.88;2.40;;;22.70;99.90;;;;;;5035472;28;20098;-30
2023/05/28 12:30:03;;;;;;;11.75;3.25;;;22.60;99.90;;;;;;5035450;28;20053;-29
2023/05/28 12:32:29;;;;;;;6.10;2.50;;;22.60;99.90;;;;;;5035486;28;20421;-29
2023/05/28 12:34:58;;;;;;;7.00;2.38;;;22.80;99.90;;;;;;5035023;28;20050;-30
2023/05/28 12:37:24;;;;;;;10.43;2.72;;;22.80;99.90;;;;;;5034703;28;20134;-29
2023/05/28 12:39:50;;;;;;;9.90;3.25;;;23.00;99.90;;;;;;5035386;28;20050;-28
2023/05/28 12:42:16;;;;;;;12.20;2.90;;;22.90;99.90;;;;;;5034808;28;20515;-28